Дата Пункты Температура Давл., мм. Влажн., % Ветер Погодные явления
Воздуха Воды Направл. Скорость
07.01.20 05:00 Одесса 1.0 6.0 766 63 Пн 5 17 ГОДИН
07.01.20 02:00 Одесса 2.0 6.0 766 64 Пн 5 14 ГОДИН
07.01.20 11:00 Одесса 2.0 6.0 767 69 Пн 5 11 ГОДИН
07.01.20 08:00 Одесса -1.0 6.0 766 80 Пн 2 08 ГОДИН
07.01.20 05:00 Одесса 1.0 6.0 766 70 Пн 5 05 ГОДИН
06.01.20 11:00 Одесса 1.0 7.0 767 83 Пн 4 23 ГОДИНИ
06.01.20 08:00 Одесса 2.0 7.0 767 80 Пн 4 20 ГОДИН
06.01.20 05:00 Одесса 2.0 7.0 766 83 Пн 4 17 ГОДИН
06.01.20 02:00 Одесса 3.0 7.0 766 80 Пн 5 14 ГОДИН
06.01.20 11:00 Одесса 3.0 7.0 767 84 Пн 5 11 ГОДИН
06.01.20 08:00 Одесса 1.0 7.0 766 88 Пн 5 08 ГОДИН
06.01.20 05:00 Одесса 2.0 7.0 764 90 Пн 5 05 ГОДИН
06.01.20 02:00 Одесса 1.0 7.0 764 89 Пн 3 02 ГОДИНИ
05.01.20 11:00 Одесса 2.0 7.0 762 85 Пн-З 3 23 ГОДИНИ
05.01.20 08:00 Одесса 3.0 7.0 761 80 Пн 2 20 ГОДИН
05.01.20 05:00 Одесса 3.0 7.0 759 78 Пн 1 17 ГОДИН
05.01.20 02:00 Одесса 3.0 7.0 758 83 Пн-З 3 14 ГОДИН
05.01.20 11:00 Одесса 3.0 7.0 757 88 Пн-З 1 11 ГОДИН
05.01.20 08:00 Одесса 2.0 7.0 756 95 Пн-З 2 08 ГОДИН
05.01.20 05:00 Одесса 3.0 7.0 756 92 Пн-З 3 05 ГОДИН
Количество строк
1 2 3 4 5 6 7 8 9 10
Page 8 of 579